Time;durP1;ratioP1;P1;durP2;ratioP2;P2;SDS_P1;SDS_P2;PMS_P1;PMS_P2;Temp;Humidity;BMP_temperature;BMP_pressure;BME280_temperature;BME280_humidity;BME280_pressure;Samples;Min_cycle;Max_cycle;Signal;HPM_P1;HPM_P2
2022/12/15 00:41:11;;;;;;;43.80;25.00;;;;;;;;;;4998793;28;20049;-81
2022/12/15 00:44:01;;;;;;;43.05;24.73;;;;;;;;;;4984698;28;20037;-82
2022/12/15 00:46:53;;;;;;;44.38;25.20;;;;;;;;;;4995062;28;20121;-81
2022/12/15 01:21:07;;;;;;;43.42;24.65;;;;;;;;;;5013458;28;20044;-80
2022/12/15 01:26:55;;;;;;;44.90;25.30;;;;;;;;;;5014666;28;20034;-83
2022/12/15 01:30:24;;;;;;;43.53;23.88;;;;;;;;;;4990519;28;20102;-83
2022/12/15 01:42:51;;;;;;;46.70;27.00;;;;;;;;;;4902452;29;20116;-81
2022/12/15 01:45:28;;;;;;;42.30;25.67;;;;;;;;;;4902994;29;20111;-81
2022/12/15 01:47:57;;;;;;;43.28;25.98;;;;;;;;;;4973527;28;20034;-81
2022/12/15 01:50:27;;;;;;;41.33;25.88;;;;;;;;;;4987400;28;20121;-80
2022/12/15 01:52:55;;;;;;;42.35;23.67;;;;;;;;;;4998096;28;20038;-80
2022/12/15 01:55:24;;;;;;;42.53;24.25;;;;;;;;;;4987409;28;20035;-81
2022/12/15 01:57:56;;;;;;;47.03;25.55;;;;;;;;;;4995971;28;20144;-81
2022/12/15 02:00:30;;;;;;;39.03;24.23;;;;;;;;;;5019306;28;20065;-81
2022/12/15 02:02:59;;;;;;;43.47;24.55;;;;;;;;;;5021938;28;20105;-81
2022/12/15 02:05:30;;;;;;;38.97;22.75;;;;;;;;;;5000610;28;20117;-82
2022/12/15 02:07:59;;;;;;;39.33;23.37;;;;;;;;;;5029222;28;20049;-81
2022/12/15 02:10:28;;;;;;;39.83;22.85;;;;;;;;;;5031018;28;20253;-81
2022/12/15 02:13:23;;;;;;;37.53;21.98;;;;;;;;;;5031408;28;20025;-81
2022/12/15 02:16:39;;;;;;;40.67;21.83;;;;;;;;;;5030193;28;20026;-80
2022/12/15 02:19:52;;;;;;;38.45;21.52;;;;;;;;;;5033091;28;20065;-82
2022/12/15 02:22:36;;;;;;;36.47;22.30;;;;;;;;;;4998444;28;20061;-81
2022/12/15 02:25:21;;;;;;;40.17;23.08;;;;;;;;;;5014102;28;20081;-81
2022/12/15 02:28:07;;;;;;;40.67;24.13;;;;;;;;;;5015634;28;20040;-81
2022/12/15 02:34:12;;;;;;;43.72;24.73;;;;;;;;;;5032219;28;20069;-81
2022/12/15 02:36:40;;;;;;;36.22;20.83;;;;;;;;;;5028181;28;20080;-79
2022/12/15 02:39:06;;;;;;;33.63;20.80;;;;;;;;;;5030640;28;20390;-79
2022/12/15 02:41:33;;;;;;;35.35;21.35;;;;;;;;;;5013462;28;20030;-80
2022/12/15 02:44:00;;;;;;;35.67;21.30;;;;;;;;;;5031612;28;20086;-81
2022/12/15 02:46:35;;;;;;;33.47;20.40;;;;;;;;;;5012495;28;20026;-80
2022/12/15 02:49:09;;;;;;;35.00;21.30;;;;;;;;;;5003580;28;20037;-80
2022/12/15 02:51:55;;;;;;;38.00;21.75;;;;;;;;;;5031247;28;20026;-81
2022/12/15 02:54:21;;;;;;;37.25;21.73;;;;;;;;;;5013089;28;20057;-80
2022/12/15 02:57:07;;;;;;;38.88;22.45;;;;;;;;;;5029777;28;20037;-80
2022/12/15 02:59:43;;;;;;;41.28;23.92;;;;;;;;;;5013067;28;20179;-80
2022/12/15 03:02:10;;;;;;;35.17;21.80;;;;;;;;;;5030489;28;20055;-80
2022/12/15 03:04:36;;;;;;;38.97;23.50;;;;;;;;;;5012701;28;20022;-79
2022/12/15 03:07:05;;;;;;;38.85;23.73;;;;;;;;;;5012906;28;20034;-79
2022/12/15 03:09:31;;;;;;;46.03;24.92;;;;;;;;;;5012932;28;20021;-81
2022/12/15 03:11:57;;;;;;;36.08;21.52;;;;;;;;;;5030702;28;20030;-80
2022/12/15 03:14:24;;;;;;;38.33;22.45;;;;;;;;;;5031706;28;20033;-81
2022/12/15 03:16:51;;;;;;;40.35;24.00;;;;;;;;;;5016345;28;20038;-80
2022/12/15 03:19:17;;;;;;;36.60;21.33;;;;;;;;;;5010801;28;20035;-80
2022/12/15 03:21:43;;;;;;;37.88;22.33;;;;;;;;;;5010654;28;20034;-79
2022/12/15 03:24:09;;;;;;;37.65;22.48;;;;;;;;;;5026817;28;20049;-80
2022/12/15 03:26:35;;;;;;;39.78;23.13;;;;;;;;;;5014620;28;20105;-80
2022/12/15 03:29:01;;;;;;;34.30;20.92;;;;;;;;;;5014343;28;20022;-81
2022/12/15 03:31:27;;;;;;;39.47;22.40;;;;;;;;;;5023056;28;20026;-81
2022/12/15 03:33:54;;;;;;;38.13;22.77;;;;;;;;;;5030202;28;20064;-83
2022/12/15 03:36:21;;;;;;;39.42;22.60;;;;;;;;;;5012907;28;20026;-81
2022/12/15 03:38:48;;;;;;;40.85;22.88;;;;;;;;;;5029944;28;20018;-82
2022/12/15 03:41:14;;;;;;;43.60;24.40;;;;;;;;;;5029297;28;20034;-80
2022/12/15 03:43:40;;;;;;;43.33;23.60;;;;;;;;;;5029097;28;20022;-80
2022/12/15 03:46:06;;;;;;;40.60;23.23;;;;;;;;;;5023925;28;20029;-81
2022/12/15 03:48:32;;;;;;;39.65;23.90;;;;;;;;;;5017109;28;20101;-81
2022/12/15 03:50:58;;;;;;;45.42;24.98;;;;;;;;;;5034173;28;20030;-81
2022/12/15 03:53:24;;;;;;;44.88;24.35;;;;;;;;;;5020453;28;20038;-81
2022/12/15 03:55:50;;;;;;;51.65;28.83;;;;;;;;;;5001943;28;20037;-81
2022/12/15 03:58:16;;;;;;;46.90;27.23;;;;;;;;;;5019843;28;20085;-81
2022/12/15 04:00:42;;;;;;;46.85;26.15;;;;;;;;;;5002251;28;20437;-81
2022/12/15 04:03:10;;;;;;;46.03;26.98;;;;;;;;;;5008743;28;20038;-81
2022/12/15 04:05:37;;;;;;;52.03;27.65;;;;;;;;;;5021284;28;20030;-80
2022/12/15 04:08:03;;;;;;;48.25;26.60;;;;;;;;;;5001250;28;20025;-80
2022/12/15 04:10:30;;;;;;;46.65;26.13;;;;;;;;;;5041359;28;20018;-82
2022/12/15 04:12:57;;;;;;;43.92;24.83;;;;;;;;;;5019672;28;20037;-81
2022/12/15 04:15:23;;;;;;;50.45;27.75;;;;;;;;;;4999419;28;20049;-81
2022/12/15 04:17:49;;;;;;;43.08;24.52;;;;;;;;;;5026007;28;20012;-81
2022/12/15 04:20:15;;;;;;;45.15;25.52;;;;;;;;;;5020187;28;20042;-80
2022/12/15 04:22:43;;;;;;;40.33;23.70;;;;;;;;;;4998427;28;20041;-81
2022/12/15 05:33:17;;;;;;;46.40;25.10;;;;;;;;;;5015760;28;20057;-80
2022/12/15 05:35:44;;;;;;;40.40;22.33;;;;;;;;;;5018544;28;20120;-81
2022/12/15 05:38:10;;;;;;;40.45;22.38;;;;;;;;;;5000514;28;20030;-82
2022/12/15 05:40:36;;;;;;;43.80;25.23;;;;;;;;;;5016534;28;20461;-80
2022/12/15 05:43:03;;;;;;;41.80;23.75;;;;;;;;;;5015948;28;20033;-81
2022/12/15 05:45:29;;;;;;;52.97;28.25;;;;;;;;;;5015159;28;20026;-81
2022/12/15 05:47:55;;;;;;;46.15;24.85;;;;;;;;;;5000310;28;20030;-80
2022/12/15 05:50:23;;;;;;;44.03;23.52;;;;;;;;;;5000027;28;20061;-80
2022/12/15 05:52:50;;;;;;;45.50;23.17;;;;;;;;;;5018203;28;20021;-82
2022/12/15 05:55:21;;;;;;;43.40;23.75;;;;;;;;;;5000268;28;20106;-81
2022/12/15 05:57:51;;;;;;;44.10;25.88;;;;;;;;;;5016907;28;20022;-82
2022/12/15 06:00:17;;;;;;;48.63;25.58;;;;;;;;;;5016457;28;20392;-81
2022/12/15 06:02:44;;;;;;;47.17;26.00;;;;;;;;;;5000777;28;20114;-80
2022/12/15 06:05:12;;;;;;;43.67;24.00;;;;;;;;;;5021964;28;20037;-80
2022/12/15 06:07:38;;;;;;;40.83;22.58;;;;;;;;;;5012060;28;20041;-81
2022/12/15 06:10:05;;;;;;;44.40;25.02;;;;;;;;;;5015641;28;20116;-81
2022/12/15 06:12:31;;;;;;;46.40;25.70;;;;;;;;;;5033404;28;20021;-80
2022/12/15 06:14:57;;;;;;;44.45;23.30;;;;;;;;;;5038221;28;20061;-82
2022/12/15 06:17:23;;;;;;;41.83;23.67;;;;;;;;;;5041303;28;20105;-82
2022/12/15 06:19:50;;;;;;;39.65;23.23;;;;;;;;;;5040469;28;20029;-82
2022/12/15 06:22:16;;;;;;;44.90;26.02;;;;;;;;;;5031871;28;20022;-80
2022/12/15 06:24:42;;;;;;;46.15;25.90;;;;;;;;;;5011067;28;20053;-81
2022/12/15 06:27:08;;;;;;;44.83;24.55;;;;;;;;;;5017921;28;20072;-81
2022/12/15 06:29:34;;;;;;;44.33;23.77;;;;;;;;;;5000800;28;20022;-81
2022/12/15 06:32:00;;;;;;;45.60;24.60;;;;;;;;;;5017986;28;20064;-80
2022/12/15 06:34:27;;;;;;;44.17;24.80;;;;;;;;;;5017001;28;20050;-81
2022/12/15 06:37:14;;;;;;;44.20;23.27;;;;;;;;;;5017576;28;20037;-81
2022/12/15 06:39:53;;;;;;;46.75;25.27;;;;;;;;;;4987388;28;20121;-82
2022/12/15 06:42:30;;;;;;;68.82;28.13;;;;;;;;;;5000100;28;20396;-82
2022/12/15 06:44:58;;;;;;;48.78;23.90;;;;;;;;;;4999916;28;20042;-82
2022/12/15 06:47:28;;;;;;;40.97;23.45;;;;;;;;;;4984606;28;20030;-81
2022/12/15 06:50:01;;;;;;;46.40;26.05;;;;;;;;;;5021352;28;20030;-83
2022/12/15 06:52:43;;;;;;;48.20;24.40;;;;;;;;;;5017170;28;20061;-81
2022/12/15 06:55:09;;;;;;;42.55;23.23;;;;;;;;;;5001978;28;20030;-81
2022/12/15 06:57:36;;;;;;;44.92;23.90;;;;;;;;;;5005791;28;20787;-82
2022/12/15 07:00:03;;;;;;;43.92;24.35;;;;;;;;;;5024936;28;20129;-80
2022/12/15 07:02:31;;;;;;;43.47;24.27;;;;;;;;;;5014197;28;20030;-80
2022/12/15 07:04:57;;;;;;;47.60;25.52;;;;;;;;;;5019179;28;20022;-80
2022/12/15 07:07:24;;;;;;;45.53;25.27;;;;;;;;;;5020138;28;20420;-81
2022/12/15 07:09:50;;;;;;;48.75;26.25;;;;;;;;;;5029019;28;20061;-80
2022/12/15 07:12:16;;;;;;;48.92;25.63;;;;;;;;;;5000916;28;20041;-80
2022/12/15 07:14:43;;;;;;;46.85;25.38;;;;;;;;;;5016676;28;20511;-81
2022/12/15 07:17:09;;;;;;;46.20;26.42;;;;;;;;;;5027541;28;20018;-80
2022/12/15 07:19:36;;;;;;;50.97;27.60;;;;;;;;;;4999733;28;20034;-80
2022/12/15 07:22:02;;;;;;;48.85;26.17;;;;;;;;;;5017147;28;20025;-80
2022/12/15 07:24:28;;;;;;;49.63;26.50;;;;;;;;;;5016250;28;20025;-80
2022/12/15 07:26:54;;;;;;;49.50;25.95;;;;;;;;;;5016275;28;20469;-80
2022/12/15 07:29:20;;;;;;;50.78;26.75;;;;;;;;;;5012024;28;20380;-80
2022/12/15 07:31:46;;;;;;;53.88;26.98;;;;;;;;;;5017503;28;20033;-81
2022/12/15 07:34:13;;;;;;;52.28;26.38;;;;;;;;;;5015867;28;20105;-81
2022/12/15 07:36:39;;;;;;;52.20;26.58;;;;;;;;;;4995462;28;20365;-80
2022/12/15 07:39:05;;;;;;;51.63;27.33;;;;;;;;;;4997041;28;20027;-80
2022/12/15 07:41:32;;;;;;;54.90;28.20;;;;;;;;;;5012371;28;20183;-80
2022/12/15 07:43:58;;;;;;;51.78;26.67;;;;;;;;;;4997667;28;20026;-82
2022/12/15 07:46:25;;;;;;;49.15;26.45;;;;;;;;;;4996393;28;20022;-79
2022/12/15 07:48:52;;;;;;;49.13;26.40;;;;;;;;;;4996190;28;20472;-80
2022/12/15 07:51:19;;;;;;;46.85;24.65;;;;;;;;;;5018598;28;20403;-80
2022/12/15 07:53:45;;;;;;;48.78;25.45;;;;;;;;;;5005237;28;20038;-81
2022/12/15 07:56:11;;;;;;;50.47;26.73;;;;;;;;;;5016688;28;20045;-82
2022/12/15 07:58:38;;;;;;;46.35;26.15;;;;;;;;;;5006069;28;20026;-79
2022/12/15 08:01:07;;;;;;;45.33;24.95;;;;;;;;;;4988685;28;20033;-82
2022/12/15 08:03:33;;;;;;;50.53;26.25;;;;;;;;;;5015553;28;20030;-82
2022/12/15 08:06:03;;;;;;;44.65;25.25;;;;;;;;;;5015251;28;20056;-82
2022/12/15 08:08:29;;;;;;;45.33;25.85;;;;;;;;;;5015340;28;20033;-82
2022/12/15 08:10:55;;;;;;;44.15;25.48;;;;;;;;;;4996705;28;20097;-82
2022/12/15 08:13:22;;;;;;;55.58;27.30;;;;;;;;;;4997302;28;20034;-82
2022/12/15 08:15:52;;;;;;;44.85;24.65;;;;;;;;;;4989910;28;20036;-82
2022/12/15 08:18:19;;;;;;;43.45;23.52;;;;;;;;;;5006308;28;20371;-82
2022/12/15 08:20:45;;;;;;;50.45;26.65;;;;;;;;;;5007353;28;20053;-81
2022/12/15 08:23:11;;;;;;;49.17;26.35;;;;;;;;;;4986482;28;20041;-83
2022/12/15 08:25:37;;;;;;;50.15;25.75;;;;;;;;;;5003095;28;20449;-82
2022/12/15 08:28:04;;;;;;;50.42;26.40;;;;;;;;;;4988742;28;20033;-83
2022/12/15 08:30:31;;;;;;;49.10;24.95;;;;;;;;;;5020653;28;20420;-81
2022/12/15 08:32:58;;;;;;;45.05;26.70;;;;;;;;;;4998201;28;20115;-81
2022/12/15 08:35:24;;;;;;;46.40;25.13;;;;;;;;;;4997984;28;20808;-81
2022/12/15 08:37:50;;;;;;;45.67;25.33;;;;;;;;;;5020693;28;20465;-82
2022/12/15 08:40:17;;;;;;;47.50;26.77;;;;;;;;;;5029326;28;20408;-83
2022/12/15 08:42:43;;;;;;;46.92;26.85;;;;;;;;;;5028717;28;20420;-82
2022/12/15 08:45:11;;;;;;;50.92;26.95;;;;;;;;;;5030031;28;20057;-83
2022/12/15 08:47:38;;;;;;;43.10;24.67;;;;;;;;;;5031676;28;20041;-83
2022/12/15 08:50:05;;;;;;;44.17;24.70;;;;;;;;;;5031843;28;20045;-80
2022/12/15 08:52:31;;;;;;;40.20;24.08;;;;;;;;;;5032271;28;20030;-84
2022/12/15 08:54:58;;;;;;;43.72;25.02;;;;;;;;;;5032540;28;20413;-82
2022/12/15 08:57:24;;;;;;;45.28;25.20;;;;;;;;;;5035213;28;20022;-82
2022/12/15 08:59:57;;;;;;;45.00;25.30;;;;;;;;;;5034010;28;20061;-83
2022/12/15 09:02:23;;;;;;;44.58;24.58;;;;;;;;;;5033576;28;20049;-83
2022/12/15 09:04:50;;;;;;;41.42;24.98;;;;;;;;;;5033424;28;20036;-83
2022/12/15 09:07:20;;;;;;;52.58;27.40;;;;;;;;;;5017588;28;20059;-82
2022/12/15 09:09:49;;;;;;;45.95;27.13;;;;;;;;;;5015790;28;20041;-82
2022/12/15 09:12:15;;;;;;;47.40;25.92;;;;;;;;;;5017005;28;20018;-83
2022/12/15 09:14:42;;;;;;;42.60;25.23;;;;;;;;;;5034652;28;20137;-82
2022/12/15 09:17:08;;;;;;;50.15;25.80;;;;;;;;;;5035708;28;20030;-83
2022/12/15 09:19:35;;;;;;;49.72;27.13;;;;;;;;;;5001291;28;20038;-84
2022/12/15 09:22:09;;;;;;;46.90;25.98;;;;;;;;;;5017944;28;20022;-82
2022/12/15 09:24:35;;;;;;;46.17;26.20;;;;;;;;;;5018485;28;20018;-83
2022/12/15 09:27:02;;;;;;;50.53;26.92;;;;;;;;;;5019930;28;20010;-83
2022/12/15 09:29:28;;;;;;;46.15;24.70;;;;;;;;;;5037765;28;20014;-82
2022/12/15 09:31:55;;;;;;;51.83;26.45;;;;;;;;;;5020025;28;20037;-84
2022/12/15 09:34:21;;;;;;;50.60;26.67;;;;;;;;;;5036001;28;20018;-83
2022/12/15 09:36:47;;;;;;;47.05;27.42;;;;;;;;;;5036374;28;20052;-83
2022/12/15 09:39:15;;;;;;;51.60;28.20;;;;;;;;;;5021553;28;20100;-83
2022/12/15 09:41:43;;;;;;;54.42;28.10;;;;;;;;;;5005662;28;20068;-81
2022/12/15 09:44:12;;;;;;;47.80;26.88;;;;;;;;;;5020122;28;20041;-81
2022/12/15 09:46:41;;;;;;;46.17;26.55;;;;;;;;;;5019323;28;20034;-82
2022/12/15 09:49:14;;;;;;;51.10;27.95;;;;;;;;;;5019926;28;20849;-82
2022/12/15 09:51:44;;;;;;;47.97;26.02;;;;;;;;;;5002060;28;20033;-83
2022/12/15 09:54:10;;;;;;;51.55;27.27;;;;;;;;;;5019669;28;20471;-81
2022/12/15 09:57:07;;;;;;;41.15;25.23;;;;;;;;;;5034459;28;20033;-83
2022/12/15 09:59:33;;;;;;;49.80;27.73;;;;;;;;;;4967582;28;20070;-82
2022/12/15 10:02:13;;;;;;;51.72;28.50;;;;;;;;;;5019518;28;20029;-82
2022/12/15 10:04:39;;;;;;;45.13;26.27;;;;;;;;;;5037990;28;20041;-84
2022/12/15 10:07:28;;;;;;;44.83;26.38;;;;;;;;;;5036559;28;20033;-83
2022/12/15 10:09:55;;;;;;;48.67;27.60;;;;;;;;;;5037803;28;20025;-82
2022/12/15 10:12:33;;;;;;;44.88;26.17;;;;;;;;;;5038234;28;20026;-84
2022/12/15 10:14:59;;;;;;;47.75;27.00;;;;;;;;;;5037716;28;20033;-83
2022/12/15 10:17:30;;;;;;;44.72;25.33;;;;;;;;;;5021459;28;20050;-83
2022/12/15 10:20:12;;;;;;;48.28;25.90;;;;;;;;;;5019438;28;20057;-82
2022/12/15 10:22:38;;;;;;;46.35;25.73;;;;;;;;;;5034790;28;20014;-82
2022/12/15 10:25:17;;;;;;;49.10;26.17;;;;;;;;;;5017892;28;20038;-84
2022/12/15 10:27:46;;;;;;;49.78;27.15;;;;;;;;;;5020522;28;20153;-82
2022/12/15 10:30:13;;;;;;;45.72;25.98;;;;;;;;;;5037162;28;20037;-84
2022/12/15 10:32:42;;;;;;;47.58;27.67;;;;;;;;;;5036189;28;20026;-83
2022/12/15 10:35:14;;;;;;;48.45;27.05;;;;;;;;;;5018327;28;20030;-82
2022/12/15 10:37:41;;;;;;;53.58;28.35;;;;;;;;;;5018346;28;20025;-82
2022/12/15 10:40:07;;;;;;;54.45;27.63;;;;;;;;;;5034466;28;20022;-84
2022/12/15 10:42:44;;;;;;;49.22;27.15;;;;;;;;;;5034833;28;20034;-83
2022/12/15 10:45:36;;;;;;;46.10;26.95;;;;;;;;;;5026054;28;20061;-82
2022/12/15 10:48:05;;;;;;;55.10;30.83;;;;;;;;;;5003910;28;20388;-83
2022/12/15 10:50:34;;;;;;;51.45;28.85;;;;;;;;;;5028475;28;20528;-83
2022/12/15 10:53:09;;;;;;;53.75;29.60;;;;;;;;;;5034630;28;20053;-82
2022/12/15 10:55:39;;;;;;;49.38;27.20;;;;;;;;;;5038978;28;20505;-84
2022/12/15 10:58:17;;;;;;;57.53;29.58;;;;;;;;;;5035232;28;20026;-84
2022/12/15 11:00:45;;;;;;;51.95;27.58;;;;;;;;;;5018043;28;20030;-84
2022/12/15 11:03:22;;;;;;;55.50;29.20;;;;;;;;;;5035321;28;20026;-83
2022/12/15 11:05:54;;;;;;;53.33;29.83;;;;;;;;;;5020715;28;20033;-80
2022/12/15 11:08:21;;;;;;;47.30;27.13;;;;;;;;;;5020346;28;20022;-82
2022/12/15 11:13:40;;;;;;;45.17;25.92;;;;;;;;;;5002786;28;20512;-80
2022/12/15 11:16:14;;;;;;;52.72;29.15;;;;;;;;;;5013332;28;20022;-81
2022/12/15 11:18:50;;;;;;;57.13;30.35;;;;;;;;;;5020075;28;20040;-81
2022/12/15 11:21:24;;;;;;;56.25;30.88;;;;;;;;;;5001574;28;20084;-81
2022/12/15 11:23:59;;;;;;;51.30;28.70;;;;;;;;;;5018465;28;20049;-82
2022/12/15 11:26:25;;;;;;;53.80;29.20;;;;;;;;;;5019206;28;20091;-82
2022/12/15 11:29:20;;;;;;;49.78;27.88;;;;;;;;;;5021582;28;20515;-81
2022/12/15 11:31:50;;;;;;;55.72;28.60;;;;;;;;;;5021968;28;20038;-82
2022/12/15 11:34:19;;;;;;;52.63;28.80;;;;;;;;;;5033666;28;20034;-81
2022/12/15 11:37:04;;;;;;;52.60;28.10;;;;;;;;;;5017444;28;20378;-80
2022/12/15 11:39:36;;;;;;;53.63;29.33;;;;;;;;;;5016108;28;20022;-81
2022/12/15 11:42:02;;;;;;;54.72;29.55;;;;;;;;;;4998971;28;20038;-80
2022/12/15 11:44:33;;;;;;;55.03;31.33;;;;;;;;;;4998075;28;20126;-82
2022/12/15 11:47:18;;;;;;;56.13;31.20;;;;;;;;;;5017836;28;20054;-80
2022/12/15 11:49:47;;;;;;;52.72;28.17;;;;;;;;;;4999678;28;20061;-82
2022/12/15 11:52:16;;;;;;;57.72;30.45;;;;;;;;;;5019485;28;20480;-81
2022/12/15 11:54:54;;;;;;;52.38;28.92;;;;;;;;;;5011027;28;20025;-80
2022/12/15 11:57:39;;;;;;;59.45;31.08;;;;;;;;;;4986953;28;20463;-80
2022/12/15 12:00:08;;;;;;;57.47;28.35;;;;;;;;;;5005616;28;20045;-81
2022/12/15 12:02:40;;;;;;;55.70;30.45;;;;;;;;;;4989596;28;20034;-81
2022/12/15 12:05:19;;;;;;;53.70;31.50;;;;;;;;;;5009321;28;20034;-82
2022/12/15 12:07:49;;;;;;;57.25;29.05;;;;;;;;;;5028886;28;20026;-80
2022/12/15 12:10:16;;;;;;;61.70;32.67;;;;;;;;;;5025473;28;20503;-81
2022/12/15 12:12:55;;;;;;;60.78;32.00;;;;;;;;;;5007981;28;20492;-79
2022/12/15 12:15:41;;;;;;;54.53;30.73;;;;;;;;;;5017912;28;20049;-83
2022/12/15 12:18:28;;;;;;;62.90;31.98;;;;;;;;;;5036781;28;20057;-83
2022/12/15 12:21:03;;;;;;;60.55;31.60;;;;;;;;;;5012594;28;20034;-82
2022/12/15 12:23:34;;;;;;;61.55;31.95;;;;;;;;;;5008443;28;20477;-81
2022/12/15 12:26:16;;;;;;;59.35;32.28;;;;;;;;;;5000795;28;20031;-81
2022/12/15 12:28:45;;;;;;;59.30;31.65;;;;;;;;;;5002575;28;20026;-81
2022/12/15 12:31:34;;;;;;;61.58;31.58;;;;;;;;;;4981925;28;20035;-81
2022/12/15 12:34:04;;;;;;;62.17;32.42;;;;;;;;;;4998600;28;20096;-82
2022/12/15 12:36:30;;;;;;;64.05;34.53;;;;;;;;;;5002365;28;20017;-81
2022/12/15 12:38:57;;;;;;;59.78;32.47;;;;;;;;;;5019707;28;20022;-81
2022/12/15 12:41:26;;;;;;;60.65;32.25;;;;;;;;;;5017799;28;20049;-81
2022/12/15 12:43:54;;;;;;;61.33;32.53;;;;;;;;;;5003335;28;20025;-82
2022/12/15 12:46:32;;;;;;;60.67;32.08;;;;;;;;;;4998113;28;20208;-83
2022/12/15 12:49:03;;;;;;;61.38;30.13;;;;;;;;;;5000545;28;20040;-81
2022/12/15 12:51:31;;;;;;;59.83;31.67;;;;;;;;;;5025683;28;20034;-82
2022/12/15 12:53:58;;;;;;;56.60;29.45;;;;;;;;;;5032342;28;20034;-83
2022/12/15 12:56:38;;;;;;;66.35;33.70;;;;;;;;;;5010690;28;20180;-82
2022/12/15 12:59:24;;;;;;;58.17;30.85;;;;;;;;;;5007065;28;20430;-80
2022/12/15 13:01:51;;;;;;;61.35;31.67;;;;;;;;;;4979905;28;20030;-82
2022/12/15 13:04:36;;;;;;;70.60;34.85;;;;;;;;;;4980340;28;20030;-84
2022/12/15 13:07:51;;;;;;;63.65;32.60;;;;;;;;;;5016322;28;20060;-81
2022/12/15 13:10:18;;;;;;;58.60;30.73;;;;;;;;;;5017779;28;20030;-81
2022/12/15 13:12:45;;;;;;;65.45;32.05;;;;;;;;;;5016813;28;20041;-82
2022/12/15 13:15:26;;;;;;;56.65;30.50;;;;;;;;;;5001642;28;20039;-81
2022/12/15 13:17:54;;;;;;;58.75;31.55;;;;;;;;;;5019477;28;20037;-83
2022/12/15 13:20:22;;;;;;;59.03;31.23;;;;;;;;;;5021587;28;20477;-82
2022/12/15 13:22:48;;;;;;;59.78;30.13;;;;;;;;;;5021459;28;20030;-81
2022/12/15 13:25:34;;;;;;;62.17;30.42;;;;;;;;;;5003217;28;20033;-83
2022/12/15 13:28:02;;;;;;;59.53;31.73;;;;;;;;;;4985150;28;20421;-81
2022/12/15 13:30:28;;;;;;;59.30;31.92;;;;;;;;;;5004345;28;20026;-83
2022/12/15 13:33:13;;;;;;;59.20;30.92;;;;;;;;;;5004509;28;20061;-83
2022/12/15 13:35:40;;;;;;;57.33;29.40;;;;;;;;;;4987072;28;20045;-83
2022/12/15 13:38:16;;;;;;;54.17;29.30;;;;;;;;;;5001742;28;20027;-82
2022/12/15 13:40:52;;;;;;;54.38;29.10;;;;;;;;;;5001723;28;20034;-82
2022/12/15 13:43:28;;;;;;;56.42;29.95;;;;;;;;;;5001369;28;20034;-82
2022/12/15 13:46:09;;;;;;;60.50;30.27;;;;;;;;;;5019145;28;20041;-81
2022/12/15 13:48:43;;;;;;;56.95;29.45;;;;;;;;;;5020608;28;20030;-82
2022/12/15 13:51:33;;;;;;;56.17;29.80;;;;;;;;;;5021725;28;20045;-83
2022/12/15 13:54:02;;;;;;;72.28;33.08;;;;;;;;;;5020958;28;20037;-82
2022/12/15 13:56:28;;;;;;;57.55;31.48;;;;;;;;;;5002977;28;20112;-82
2022/12/15 13:59:03;;;;;;;53.78;28.73;;;;;;;;;;5020434;28;20037;-81
2022/12/15 14:01:30;;;;;;;60.17;30.05;;;;;;;;;;5019870;28;20022;-84
2022/12/15 14:04:14;;;;;;;62.95;32.58;;;;;;;;;;5001658;28;20080;-82
2022/12/15 14:06:45;;;;;;;54.50;29.67;;;;;;;;;;5023034;28;20061;-82
2022/12/15 14:09:13;;;;;;;58.80;29.43;;;;;;;;;;5008985;28;20065;-84
2022/12/15 14:11:40;;;;;;;55.85;30.42;;;;;;;;;;4984739;28;20281;-83
2022/12/15 14:14:14;;;;;;;59.63;30.75;;;;;;;;;;5002681;28;20076;-82
2022/12/15 14:16:41;;;;;;;62.33;32.50;;;;;;;;;;5020061;28;20077;-83
2022/12/15 14:19:11;;;;;;;57.95;29.63;;;;;;;;;;5005087;28;20116;-83
2022/12/15 14:21:37;;;;;;;56.08;30.60;;;;;;;;;;5020241;28;20049;-83
2022/12/15 14:24:12;;;;;;;52.03;27.98;;;;;;;;;;5006223;28;20061;-83
2022/12/15 14:26:41;;;;;;;55.40;29.90;;;;;;;;;;5023046;28;20040;-84
2022/12/15 14:29:07;;;;;;;54.78;30.38;;;;;;;;;;5007258;28;20030;-83
2022/12/15 14:31:33;;;;;;;57.42;29.55;;;;;;;;;;5001926;28;20038;-82
2022/12/15 14:34:11;;;;;;;58.38;30.48;;;;;;;;;;5000664;28;20019;-84
2022/12/15 14:36:39;;;;;;;63.22;30.70;;;;;;;;;;4984383;28;20030;-84
2022/12/15 14:39:07;;;;;;;59.03;29.67;;;;;;;;;;5015460;28;20015;-81
2022/12/15 14:41:36;;;;;;;55.95;29.23;;;;;;;;;;5012923;28;20041;-83
2022/12/15 14:44:05;;;;;;;54.00;27.92;;;;;;;;;;5002224;28;20053;-84
2022/12/15 14:46:31;;;;;;;53.25;28.25;;;;;;;;;;4989128;28;20018;-82
2022/12/15 14:49:02;;;;;;;54.95;30.20;;;;;;;;;;5019417;28;20026;-84
2022/12/15 14:51:29;;;;;;;57.45;29.67;;;;;;;;;;5002093;28;20033;-82
2022/12/15 14:53:55;;;;;;;47.35;27.35;;;;;;;;;;5020046;28;20096;-82
2022/12/15 14:56:21;;;;;;;61.95;31.17;;;;;;;;;;5021139;28;20034;-83
2022/12/15 14:58:53;;;;;;;56.20;29.35;;;;;;;;;;5019523;28;20029;-82
2022/12/15 15:01:28;;;;;;;53.88;29.10;;;;;;;;;;4988674;28;20038;-82
2022/12/15 15:03:58;;;;;;;58.72;29.92;;;;;;;;;;5017534;28;20037;-82
2022/12/15 15:06:28;;;;;;;52.33;28.85;;;;;;;;;;5001269;28;20034;-82
2022/12/15 15:08:54;;;;;;;58.45;29.48;;;;;;;;;;4998918;28;20109;-82
2022/12/15 15:11:24;;;;;;;58.42;29.50;;;;;;;;;;4981252;28;20049;-84
2022/12/15 15:13:53;;;;;;;55.45;29.38;;;;;;;;;;4999627;28;20022;-82
2022/12/15 15:16:20;;;;;;;57.00;29.75;;;;;;;;;;4998549;28;20037;-82
2022/12/15 15:18:53;;;;;;;58.92;30.08;;;;;;;;;;4998889;28;20025;-82
2022/12/15 15:21:24;;;;;;;58.53;30.23;;;;;;;;;;4998169;28;20517;-82
2022/12/15 15:24:09;;;;;;;54.53;29.45;;;;;;;;;;4999959;28;20023;-87
2022/12/15 15:26:35;;;;;;;55.03;28.70;;;;;;;;;;5006910;28;20033;-82
2022/12/15 15:29:02;;;;;;;57.03;29.77;;;;;;;;;;4993422;28;20038;-81
2022/12/15 15:31:31;;;;;;;64.75;32.72;;;;;;;;;;5003260;28;20096;-82
2022/12/15 15:33:58;;;;;;;54.60;27.95;;;;;;;;;;5001652;28;20197;-81
2022/12/15 15:36:27;;;;;;;62.67;30.85;;;;;;;;;;5025641;28;20030;-81
2022/12/15 15:38:53;;;;;;;59.85;31.15;;;;;;;;;;5015818;28;20045;-82
2022/12/15 15:41:30;;;;;;;56.08;28.08;;;;;;;;;;5008898;28;20033;-81
2022/12/15 15:44:00;;;;;;;63.65;32.78;;;;;;;;;;5008288;28;20044;-81
2022/12/15 15:46:30;;;;;;;61.20;31.60;;;;;;;;;;5024480;28;20444;-82
2022/12/15 15:49:02;;;;;;;60.00;30.42;;;;;;;;;;5001061;28;20018;-82
2022/12/15 15:51:29;;;;;;;58.25;30.15;;;;;;;;;;5018087;28;20385;-81
2022/12/15 15:53:58;;;;;;;61.45;32.20;;;;;;;;;;5000043;28;20037;-82
2022/12/15 15:56:26;;;;;;;62.47;31.00;;;;;;;;;;5016152;28;20081;-81
2022/12/15 15:58:52;;;;;;;57.08;28.58;;;;;;;;;;5016323;28;20076;-82
2022/12/15 16:01:18;;;;;;;62.00;29.77;;;;;;;;;;5017126;28;20030;-82
2022/12/15 16:03:44;;;;;;;54.20;29.00;;;;;;;;;;5022128;28;20045;-82
2022/12/15 16:06:18;;;;;;;62.00;31.00;;;;;;;;;;5019874;28;20026;-81
2022/12/15 16:08:45;;;;;;;62.70;31.95;;;;;;;;;;5016550;28;20562;-82
2022/12/15 16:11:11;;;;;;;65.90;30.77;;;;;;;;;;5016746;28;20104;-81
2022/12/15 16:13:37;;;;;;;60.08;32.08;;;;;;;;;;5003313;28;20037;-82
2022/12/15 16:16:04;;;;;;;61.38;30.83;;;;;;;;;;5014657;28;20030;-81
2022/12/15 16:18:31;;;;;;;66.80;33.25;;;;;;;;;;5024513;28;20095;-81
2022/12/15 16:20:57;;;;;;;65.15;31.83;;;;;;;;;;5019266;28;20117;-82
2022/12/15 16:23:26;;;;;;;66.20;33.10;;;;;;;;;;5017015;28;20034;-81
2022/12/15 16:25:53;;;;;;;68.35;32.47;;;;;;;;;;5021467;28;20469;-80
2022/12/15 16:28:21;;;;;;;67.63;32.88;;;;;;;;;;5019204;28;20033;-82
2022/12/15 16:30:47;;;;;;;64.85;32.35;;;;;;;;;;5029470;28;20364;-83
2022/12/15 16:33:14;;;;;;;64.57;31.92;;;;;;;;;;5026075;28;20065;-82
2022/12/15 16:35:41;;;;;;;64.57;33.13;;;;;;;;;;5018069;28;20038;-83
2022/12/15 16:38:13;;;;;;;65.50;31.65;;;;;;;;;;5003078;28;20141;-83
2022/12/15 16:40:39;;;;;;;64.22;32.58;;;;;;;;;;5024712;28;20033;-83
2022/12/15 16:43:10;;;;;;;63.92;31.42;;;;;;;;;;5008398;28;20041;-83
2022/12/15 16:45:36;;;;;;;66.35;33.08;;;;;;;;;;5000763;28;20026;-83
2022/12/15 16:48:02;;;;;;;67.05;32.28;;;;;;;;;;5016850;28;20113;-82
2022/12/15 16:50:34;;;;;;;68.85;32.42;;;;;;;;;;5017821;28;20018;-82
2022/12/15 16:53:01;;;;;;;64.15;33.05;;;;;;;;;;5006185;28;20084;-84
2022/12/15 16:55:28;;;;;;;62.97;31.55;;;;;;;;;;5001153;28;20447;-85
2022/12/15 16:57:56;;;;;;;65.25;32.85;;;;;;;;;;5019425;28;20111;-82
2022/12/15 17:00:24;;;;;;;66.55;31.50;;;;;;;;;;5027282;28;20021;-82
2022/12/15 17:02:51;;;;;;;64.53;31.00;;;;;;;;;;5032219;28;20044;-84
2022/12/15 17:05:18;;;;;;;64.05;30.67;;;;;;;;;;4999996;28;20025;-82
2022/12/15 17:07:50;;;;;;;59.85;31.02;;;;;;;;;;5001578;28;20048;-82
2022/12/15 17:10:17;;;;;;;66.80;32.85;;;;;;;;;;5017250;28;20458;-82
2022/12/15 17:12:43;;;;;;;66.05;32.58;;;;;;;;;;4999706;28;20036;-81
2022/12/15 17:15:17;;;;;;;65.20;32.55;;;;;;;;;;5007931;28;20069;-82